Time;durP1;ratioP1;P1;durP2;ratioP2;P2;SDS_P1;SDS_P2;PMS_P1;PMS_P2;Temp;Humidity;BMP_temperature;BMP_pressure;BME280_temperature;BME280_humidity;BME280_pressure;Samples;Min_cycle;Max_cycle;Signal;HPM_P1;HPM_P2
2020/12/08 00:02:05;;;;;;;9.93;7.28;;;;;;;16.90;55.12;100230.56;4828548;29;20037;-79
2020/12/08 00:04:30;;;;;;;8.43;7.13;;;;;;;16.91;55.28;100233.16;4826127;29;20472;-79
2020/12/08 00:06:56;;;;;;;11.43;7.43;;;;;;;16.90;55.07;100235.75;4863744;29;20044;-78
2020/12/08 00:09:21;;;;;;;8.68;7.40;;;;;;;16.89;55.14;100234.06;4846903;29;20053;-78
2020/12/08 00:11:47;;;;;;;9.15;7.30;;;;;;;16.90;55.35;100231.44;4816687;29;20038;-78
2020/12/08 00:14:13;;;;;;;9.23;7.13;;;;;;;16.89;55.17;100229.72;4846872;29;20116;-78
2020/12/08 00:16:39;;;;;;;8.18;6.95;;;;;;;16.91;55.11;100234.91;4846880;29;20051;-79
2020/12/08 00:19:05;;;;;;;8.82;7.18;;;;;;;16.89;55.06;100242.72;4841320;29;20033;-79
2020/12/08 00:21:31;;;;;;;9.32;7.60;;;;;;;16.88;54.88;100241.00;4863223;29;20130;-78
2020/12/08 00:23:56;;;;;;;9.38;7.55;;;;;;;16.90;55.06;100243.56;4873754;29;20062;-78
2020/12/08 00:26:22;;;;;;;10.77;7.75;;;;;;;16.88;55.09;100240.16;4854005;29;20473;-79
2020/12/08 00:28:47;;;;;;;8.57;6.90;;;;;;;16.88;55.06;100240.16;4838619;29;20033;-79
2020/12/08 00:31:12;;;;;;;8.77;7.60;;;;;;;16.86;54.93;100235.81;4848646;29;20034;-79
2020/12/08 00:33:38;;;;;;;9.63;8.05;;;;;;;16.85;55.29;100244.53;4836252;29;20036;-79
2020/12/08 00:36:03;;;;;;;8.98;7.57;;;;;;;16.86;54.98;100242.78;4867690;29;20036;-79
2020/12/08 00:38:29;;;;;;;8.75;7.38;;;;;;;16.86;54.89;100242.78;4866481;29;20503;-79
2020/12/08 00:40:54;;;;;;;9.82;7.25;;;;;;;16.86;55.04;100255.75;4840207;29;20065;-79
2020/12/08 00:43:20;;;;;;;9.73;7.18;;;;;;;16.85;54.95;100248.84;4830745;29;20048;-79
2020/12/08 00:45:46;;;;;;;9.75;7.47;;;;;;;16.85;55.01;100254.03;4846949;29;20471;-79
2020/12/08 00:48:12;;;;;;;9.13;7.88;;;;;;;16.84;54.95;100260.13;4871985;29;20029;-79
2020/12/08 00:50:37;;;;;;;8.38;7.13;;;;;;;16.84;55.03;100257.53;4853569;29;20545;-79
2020/12/08 00:53:03;;;;;;;9.57;7.88;;;;;;;16.85;54.76;100259.22;4848017;29;20029;-79
2020/12/08 00:55:28;;;;;;;9.05;7.00;;;;;;;16.83;54.85;100250.59;4852159;29;20034;-79
2020/12/08 00:57:54;;;;;;;9.52;7.85;;;;;;;16.83;54.70;100253.19;4850124;29;20028;-79
2020/12/08 01:00:19;;;;;;;8.98;7.28;;;;;;;16.82;54.77;100247.16;4840853;29;20033;-79
2020/12/08 01:02:46;;;;;;;9.52;7.68;;;;;;;16.82;54.62;100256.69;4817331;29;20477;-79
2020/12/08 01:05:11;;;;;;;9.60;7.68;;;;;;;16.83;54.61;100261.00;4847628;29;20185;-79
2020/12/08 01:07:40;;;;;;;8.98;7.43;;;;;;;16.82;54.81;100265.34;4850013;29;20555;-78
2020/12/08 01:10:06;;;;;;;9.82;8.07;;;;;;;16.83;54.39;100267.06;4864645;29;20051;-79
2020/12/08 01:12:31;;;;;;;8.93;7.47;;;;;;;16.82;54.67;100267.94;4847445;29;20029;-79
2020/12/08 01:14:57;;;;;;;9.32;7.45;;;;;;;16.83;54.67;100279.19;4812425;29;20037;-79
2020/12/08 01:17:22;;;;;;;9.40;7.80;;;;;;;16.81;54.55;100280.94;4827773;29;20042;-79
2020/12/08 01:19:47;;;;;;;10.45;7.60;;;;;;;16.80;54.74;100277.50;4828951;29;20030;-79
2020/12/08 01:22:13;;;;;;;9.38;7.57;;;;;;;16.81;54.39;100280.94;4827094;29;20058;-79
2020/12/08 01:24:38;;;;;;;8.85;7.35;;;;;;;16.80;54.64;100285.28;4826717;29;20046;-79
2020/12/08 01:27:03;;;;;;;8.98;7.43;;;;;;;16.80;54.50;100289.63;4843033;29;20517;-79
2020/12/08 01:29:29;;;;;;;10.05;7.63;;;;;;;16.80;54.39;100287.03;4845304;29;20396;-79
2020/12/08 01:31:54;;;;;;;10.20;7.90;;;;;;;16.79;54.50;100278.34;4845915;29;20112;-79
2020/12/08 01:34:19;;;;;;;9.35;8.13;;;;;;;16.78;54.50;100287.00;4845836;29;20108;-79
2020/12/08 01:36:45;;;;;;;9.63;7.95;;;;;;;16.80;54.80;100292.22;4845381;29;20473;-79
2020/12/08 01:39:10;;;;;;;8.88;7.32;;;;;;;16.80;54.47;100297.44;4845226;29;20366;-79
2020/12/08 01:41:35;;;;;;;9.82;7.90;;;;;;;16.78;54.45;100289.63;4861664;29;20040;-79
2020/12/08 01:44:01;;;;;;;9.52;8.25;;;;;;;16.77;54.36;100287.91;4845516;29;20042;-79
2020/12/08 01:46:27;;;;;;;10.50;8.10;;;;;;;16.79;54.83;100295.69;4830270;29;20469;-78
2020/12/08 01:48:53;;;;;;;8.70;7.68;;;;;;;16.79;54.25;100300.91;4862150;29;20033;-78
2020/12/08 01:51:20;;;;;;;9.52;7.88;;;;;;;16.79;54.40;100308.69;4845095;29;20082;-78
2020/12/08 01:53:50;;;;;;;9.10;7.72;;;;;;;16.78;54.30;100309.56;4844619;29;20119;-78
2020/12/08 01:56:16;;;;;;;9.52;8.15;;;;;;;16.76;54.47;100312.16;4845067;29;20503;-78
2020/12/08 01:58:41;;;;;;;9.55;7.82;;;;;;;16.78;54.40;100317.34;4861656;29;20064;-78
2020/12/08 02:01:10;;;;;;;9.63;8.20;;;;;;;16.78;54.35;100319.94;4845109;29;20029;-78
2020/12/08 02:03:37;;;;;;;9.85;7.68;;;;;;;16.77;54.15;100321.69;4844921;29;20037;-78
2020/12/08 02:06:02;;;;;;;9.27;7.78;;;;;;;16.77;54.39;100315.66;4861520;29;20037;-78
2020/12/08 02:08:33;;;;;;;9.43;8.15;;;;;;;16.77;54.45;100323.44;4830066;29;20040;-78
2020/12/08 02:10:59;;;;;;;10.32;8.32;;;;;;;16.75;54.31;100318.25;4861569;29;20085;-78
2020/12/08 02:13:25;;;;;;;9.52;8.10;;;;;;;16.75;54.47;100313.06;4856280;29;20040;-78
2020/12/08 02:15:50;;;;;;;10.65;8.00;;;;;;;16.73;54.10;100312.22;4844787;29;20041;-78
2020/12/08 02:18:16;;;;;;;9.35;8.15;;;;;;;16.75;54.28;100310.47;4844947;29;20029;-78
2020/12/08 02:20:42;;;;;;;9.40;8.13;;;;;;;16.74;54.24;100307.88;4832996;29;20032;-77
2020/12/08 02:23:08;;;;;;;9.40;8.13;;;;;;;16.72;54.15;100315.69;4872518;29;20056;-77
2020/12/08 02:25:33;;;;;;;9.32;8.07;;;;;;;16.73;54.14;100300.97;4844571;29;20134;-77
2020/12/08 02:27:59;;;;;;;8.55;7.45;;;;;;;16.73;54.11;100308.78;4830249;29;20069;-78
2020/12/08 02:30:24;;;;;;;8.90;7.38;;;;;;;16.73;53.99;100309.63;4843466;29;20489;-78
2020/12/08 02:32:49;;;;;;;9.50;7.78;;;;;;;16.73;54.34;100311.38;4844664;29;20025;-78
2020/12/08 02:35:15;;;;;;;9.77;8.30;;;;;;;16.73;54.02;100306.16;4832384;29;20098;-78
2020/12/08 02:37:40;;;;;;;10.27;8.10;;;;;;;16.73;54.14;100307.03;4865997;29;20042;-78
2020/12/08 02:40:06;;;;;;;9.93;8.48;;;;;;;16.73;53.97;100306.16;4861041;29;20441;-78
2020/12/08 02:42:31;;;;;;;9.32;8.10;;;;;;;16.73;54.23;100308.78;4861186;29;20105;-78
2020/12/08 02:44:57;;;;;;;9.00;8.05;;;;;;;16.71;53.99;100310.53;4844445;29;20037;-78
2020/12/08 02:47:23;;;;;;;9.27;7.97;;;;;;;16.71;54.11;100303.59;4826221;29;20037;-78
2020/12/08 02:49:48;;;;;;;8.90;7.78;;;;;;;16.71;53.87;100306.19;4837819;29;20029;-78
2020/12/08 02:52:14;;;;;;;9.20;7.90;;;;;;;16.71;54.13;100313.97;4827992;29;20069;-78
2020/12/08 02:54:40;;;;;;;8.82;7.60;;;;;;;16.71;54.09;100323.53;4834069;29;20045;-78
2020/12/08 02:57:05;;;;;;;8.68;7.40;;;;;;;16.71;54.01;100329.56;4869046;29;20040;-78
2020/12/08 02:59:34;;;;;;;8.75;7.82;;;;;;;16.70;54.09;100324.38;4838913;29;20033;-78
2020/12/08 03:01:59;;;;;;;9.27;8.15;;;;;;;16.69;53.81;100320.94;4871029;29;20054;-79
2020/12/08 03:04:24;;;;;;;10.20;8.25;;;;;;;16.70;53.89;100322.66;4856028;29;20433;-78
2020/12/08 03:06:50;;;;;;;9.95;8.10;;;;;;;16.70;53.83;100312.28;4840791;29;20033;-78
2020/12/08 03:09:15;;;;;;;9.77;8.02;;;;;;;16.68;53.80;100319.22;4833908;29;20480;-78
2020/12/08 03:11:41;;;;;;;8.73;7.53;;;;;;;16.68;53.78;100314.03;4865961;29;20036;-78
2020/12/08 03:14:07;;;;;;;8.82;7.57;;;;;;;16.69;53.87;100314.88;4833826;29;20104;-78
2020/12/08 03:16:33;;;;;;;8.70;7.80;;;;;;;16.68;53.76;100319.22;4865771;29;20041;-79
2020/12/08 03:18:58;;;;;;;9.15;7.82;;;;;;;16.67;53.89;100315.75;4820296;29;20026;-79
2020/12/08 03:21:24;;;;;;;8.02;7.07;;;;;;;16.69;53.66;100320.09;4831451;29;20054;-79
2020/12/08 03:23:49;;;;;;;10.98;7.32;;;;;;;16.67;53.75;100309.69;4845623;29;20409;-78
2020/12/08 03:26:21;;;;;;;9.00;8.10;;;;;;;16.69;53.70;100314.88;4820174;29;20055;-78
2020/12/08 03:28:47;;;;;;;8.40;7.47;;;;;;;16.67;53.90;100313.16;4849775;29;20061;-78
2020/12/08 03:31:13;;;;;;;8.85;7.72;;;;;;;16.67;53.94;100307.97;4863949;29;20037;-80
2020/12/08 03:33:39;;;;;;;9.52;8.25;;;;;;;16.66;53.72;100300.22;4861139;29;20025;-79
2020/12/08 03:36:10;;;;;;;8.63;7.55;;;;;;;16.66;53.70;100302.81;4859481;29;20131;-79
2020/12/08 03:38:35;;;;;;;9.07;7.80;;;;;;;16.66;53.94;100300.22;4847815;29;20040;-79
2020/12/08 03:41:01;;;;;;;8.43;7.53;;;;;;;16.66;53.78;100301.06;4860072;29;20104;-79
2020/12/08 03:43:26;;;;;;;9.23;8.10;;;;;;;16.66;53.86;100302.81;4819932;29;20054;-79
2020/12/08 03:45:51;;;;;;;8.32;7.45;;;;;;;16.64;53.81;100295.03;4829299;29;20030;-79
2020/12/08 03:48:17;;;;;;;8.80;7.85;;;;;;;16.65;53.59;100298.47;4816656;29;20476;-78
2020/12/08 03:50:43;;;;;;;8.30;7.40;;;;;;;16.64;53.64;100292.44;4817241;29;20045;-78
2020/12/08 03:53:08;;;;;;;9.43;7.88;;;;;;;16.64;53.62;100294.16;4847689;29;20064;-79
2020/12/08 03:55:34;;;;;;;8.38;7.05;;;;;;;16.63;53.57;100292.44;4842231;29;20053;-78
2020/12/08 03:57:59;;;;;;;8.02;7.22;;;;;;;16.63;53.71;100293.28;4866360;29;20044;-78
2020/12/08 04:00:25;;;;;;;9.43;7.70;;;;;;;16.63;53.53;100297.63;4881252;29;20033;-79
2020/12/08 04:02:50;;;;;;;8.05;7.20;;;;;;;16.62;53.53;100301.13;4876106;29;20041;-79
2020/12/08 04:05:16;;;;;;;8.60;7.72;;;;;;;16.61;53.58;100305.47;4863887;29;20041;-79
2020/12/08 04:07:41;;;;;;;9.98;7.43;;;;;;;16.61;53.69;100307.19;4829471;29;20034;-79
2020/12/08 04:10:06;;;;;;;8.88;7.35;;;;;;;16.60;53.59;100308.94;4853348;29;20025;-79
2020/12/08 04:12:32;;;;;;;8.32;7.47;;;;;;;16.60;53.48;100311.53;4852921;29;20393;-79
2020/12/08 04:14:57;;;;;;;8.20;7.22;;;;;;;16.60;53.88;100321.06;4848314;29;20037;-79
2020/12/08 04:17:22;;;;;;;8.57;7.10;;;;;;;16.59;53.81;100321.94;4836830;29;20029;-79
2020/12/08 04:19:48;;;;;;;8.20;7.07;;;;;;;16.61;53.65;100330.56;4857618;29;20487;-79
2020/12/08 04:22:13;;;;;;;8.10;7.18;;;;;;;16.61;53.92;100327.97;4849951;29;20053;-78
2020/12/08 04:24:39;;;;;;;8.55;7.13;;;;;;;16.60;53.92;100332.31;4834874;29;20026;-79
2020/12/08 04:27:04;;;;;;;8.30;7.28;;;;;;;16.61;54.00;100330.56;4849805;29;20033;-79
2020/12/08 04:29:30;;;;;;;8.88;7.05;;;;;;;16.60;53.93;100345.31;4830990;29;20124;-79
2020/12/08 04:31:56;;;;;;;8.40;6.95;;;;;;;16.61;53.87;100333.16;4852109;29;20026;-79
2020/12/08 04:34:21;;;;;;;7.78;6.53;;;;;;;16.62;54.00;100337.50;4834176;29;20121;-79
2020/12/08 04:36:47;;;;;;;7.75;6.55;;;;;;;16.61;53.92;100343.56;4847079;29;20026;-78
2020/12/08 04:39:12;;;;;;;8.52;7.00;;;;;;;16.60;53.70;100345.31;4842514;29;20097;-79
2020/12/08 04:41:38;;;;;;;7.70;6.90;;;;;;;16.61;54.05;100348.75;4827398;29;20026;-79
2020/12/08 04:44:05;;;;;;;7.15;6.43;;;;;;;16.59;54.13;100346.19;4859760;29;20192;-79
2020/12/08 04:46:31;;;;;;;7.57;6.78;;;;;;;16.59;53.73;100346.19;4882073;29;20029;-79
2020/12/08 04:48:56;;;;;;;7.35;6.38;;;;;;;16.60;53.86;100347.03;4854513;29;20090;-79
2020/12/08 04:51:22;;;;;;;7.90;7.10;;;;;;;16.60;53.94;100341.84;4863002;29;20026;-79
2020/12/08 04:53:48;;;;;;;7.32;6.57;;;;;;;16.60;54.10;100347.91;4859092;29;20073;-79
2020/12/08 04:56:13;;;;;;;6.95;6.25;;;;;;;16.61;54.00;100349.63;4846296;29;20473;-79
2020/12/08 04:58:42;;;;;;;6.85;6.15;;;;;;;16.60;54.04;100347.91;4862501;29;20053;-79
2020/12/08 05:01:08;;;;;;;7.93;5.88;;;;;;;16.60;54.09;100353.09;4846381;29;20029;-79
2020/12/08 05:03:34;;;;;;;6.82;6.13;;;;;;;16.59;54.06;100354.00;4862527;29;20040;-79
2020/12/08 05:06:00;;;;;;;6.47;5.85;;;;;;;16.60;54.03;100354.84;4855371;29;20029;-79
2020/12/08 05:08:26;;;;;;;7.07;5.97;;;;;;;16.60;53.93;100358.28;4845657;29;20037;-79
2020/12/08 05:10:51;;;;;;;7.03;5.90;;;;;;;16.61;54.03;100365.22;4868426;29;20074;-79
2020/12/08 05:13:22;;;;;;;8.25;6.10;;;;;;;16.61;54.00;100361.75;4862447;29;20068;-79
2020/12/08 05:16:04;;;;;;;6.40;5.80;;;;;;;16.62;54.03;100366.06;4862321;29;20029;-79
2020/12/08 05:18:34;;;;;;;6.95;6.10;;;;;;;16.62;54.04;100366.06;4862055;29;20030;-79
2020/12/08 05:21:12;;;;;;;6.70;5.80;;;;;;;16.61;53.98;100370.41;4863270;29;20074;-79
2020/12/08 05:23:42;;;;;;;6.18;5.35;;;;;;;16.62;54.02;100371.28;4845556;29;20101;-79
2020/12/08 05:26:15;;;;;;;6.55;5.80;;;;;;;16.61;54.11;100374.72;4845540;29;20021;-79
2020/12/08 05:28:42;;;;;;;6.72;5.65;;;;;;;16.62;54.13;100372.13;4846113;29;20037;-79
2020/12/08 05:31:08;;;;;;;7.95;5.93;;;;;;;16.62;53.99;100374.72;4850031;29;20029;-79
2020/12/08 05:33:38;;;;;;;6.25;5.65;;;;;;;16.61;54.04;100378.22;4870624;29;20084;-79
2020/12/08 05:36:04;;;;;;;6.10;5.47;;;;;;;16.62;53.95;100372.13;4864787;29;20603;-79
2020/12/08 05:38:37;;;;;;;6.25;5.65;;;;;;;16.62;54.00;100376.47;4846215;29;20089;-79
2020/12/08 05:41:05;;;;;;;6.40;5.68;;;;;;;16.61;53.84;100375.59;4827515;29;20082;-79
2020/12/08 05:43:35;;;;;;;6.18;5.57;;;;;;;16.62;53.63;100376.47;4830136;29;20033;-78
2020/12/08 05:46:03;;;;;;;8.02;5.18;;;;;;;16.62;54.12;100371.28;4867759;29;20040;-79
2020/12/08 05:48:30;;;;;;;6.28;5.47;;;;;;;16.62;53.90;100377.31;4849312;29;20587;-79
2020/12/08 05:50:55;;;;;;;6.20;5.22;;;;;;;16.62;54.00;100379.91;4846062;29;20476;-78
2020/12/08 05:53:21;;;;;;;6.03;5.25;;;;;;;16.63;54.10;100375.56;4849217;29;20032;-78
2020/12/08 05:55:46;;;;;;;5.95;5.30;;;;;;;16.62;54.31;100371.28;4869075;29;20484;-77
2020/12/08 05:58:12;;;;;;;5.22;4.72;;;;;;;16.61;54.05;100379.94;4846473;29;20054;-78
2020/12/08 06:00:39;;;;;;;5.70;5.07;;;;;;;16.62;53.95;100385.09;4843895;29;20034;-78
2020/12/08 06:03:11;;;;;;;5.20;4.70;;;;;;;16.62;53.93;100392.91;4842851;29;20013;-81
2020/12/08 06:05:38;;;;;;;7.15;5.97;;;;;;;16.62;54.21;100387.72;4862141;29;20036;-80
2020/12/08 06:08:46;;;;;;;5.68;4.72;;;;;;;16.63;53.90;100391.16;4852773;29;20121;-79
2020/12/08 06:14:37;;;;;;;12.60;6.78;;;;;;;16.84;54.35;100384.88;5394532;24;20061;-81
2020/12/08 06:17:07;;;;;;;15.05;7.10;;;;;;;16.88;54.21;100383.09;5109738;24;20065;-81
2020/12/08 06:19:36;;;;;;;12.13;6.55;;;;;;;16.93;54.45;100394.28;4877227;29;20069;-81
2020/12/08 06:22:12;;;;;;;10.55;6.75;;;;;;;16.95;54.50;100395.97;4858806;29;20060;-80
2020/12/08 06:24:57;;;;;;;11.23;6.28;;;;;;;16.98;54.40;100398.50;4851914;29;20058;-80
2020/12/08 06:51:18;;;;;;;7.30;5.72;;;;;;;17.06;55.00;100409.66;5376608;23;20053;-81
2020/12/08 06:53:48;;;;;;;7.18;5.40;;;;;;;17.05;55.04;100407.97;4856993;29;20061;-81
2020/12/08 06:59:41;;;;;;;7.50;5.38;;;;;;;17.06;55.06;100414.88;4869397;29;20024;-81
2020/12/08 07:02:28;;;;;;;7.45;5.28;;;;;;;17.07;54.92;100413.13;4835205;29;20050;-81
2020/12/08 07:09:17;;;;;;;9.88;5.70;;;;;;;17.06;55.05;100417.47;4818592;29;20076;-81
2020/12/08 07:12:25;;;;;;;9.30;5.20;;;;;;;17.09;55.03;100426.09;4753703;30;20029;-81
2020/12/08 07:14:58;;;;;;;6.65;5.40;;;;;;;17.09;55.08;100428.69;4721801;30;20045;-80
2020/12/08 07:20:55;;;;;;;7.18;4.78;;;;;;;17.10;54.75;100430.44;4750456;30;20060;-81
2020/12/08 07:23:39;;;;;;;7.22;5.03;;;;;;;17.11;55.26;100445.16;4726517;30;20045;-81
2020/12/08 07:26:05;;;;;;;5.65;4.90;;;;;;;17.10;54.94;100443.44;4712362;30;20045;-81
2020/12/08 07:28:33;;;;;;;6.57;4.80;;;;;;;17.10;54.82;100446.03;4734501;30;20132;-81
2020/12/08 07:30:59;;;;;;;6.35;4.70;;;;;;;17.11;54.89;100446.00;4720646;30;20052;-81
2020/12/08 07:33:35;;;;;;;6.78;4.70;;;;;;;17.10;54.65;100446.88;4743904;30;20037;-81
2020/12/08 07:36:01;;;;;;;6.28;4.70;;;;;;;17.11;54.79;100446.00;4736567;30;20109;-81
2020/12/08 07:38:26;;;;;;;6.65;4.72;;;;;;;17.13;54.75;100451.19;4740558;30;20052;-81
2020/12/08 07:40:59;;;;;;;6.18;4.65;;;;;;;17.11;55.16;100442.53;4731392;30;20045;-81
2020/12/08 07:43:31;;;;;;;6.32;5.03;;;;;;;17.12;54.89;100457.28;4756179;30;20227;-81
2020/12/08 07:46:11;;;;;;;6.72;4.20;;;;;;;17.12;55.01;100444.28;4769499;30;20043;-80
2020/12/08 07:52:37;;;;;;;6.60;4.20;;;;;;;17.15;54.46;100457.22;4787877;30;20066;-81
2020/12/08 07:55:11;;;;;;;5.35;4.18;;;;;;;17.15;54.55;100460.69;4799762;29;20070;-81
2020/12/08 07:57:37;;;;;;;7.93;4.57;;;;;;;17.13;54.78;100452.03;4817565;29;20030;-78
2020/12/08 08:00:02;;;;;;;5.35;4.13;;;;;;;17.15;54.63;100460.69;4833984;29;20058;-79
2020/12/08 08:03:14;;;;;;;6.82;4.18;;;;;;;17.18;54.67;100452.84;4842648;29;20366;-79
2020/12/08 08:05:40;;;;;;;5.65;4.30;;;;;;;17.19;54.48;100454.56;4845196;29;20065;-80
2020/12/08 08:08:07;;;;;;;6.43;4.38;;;;;;;17.20;54.45;100456.28;4849376;29;20031;-80
2020/12/08 08:10:32;;;;;;;6.88;4.50;;;;;;;17.20;54.38;100447.59;4821042;29;20038;-81
2020/12/08 08:12:59;;;;;;;5.22;4.45;;;;;;;17.21;54.59;100449.34;4834304;29;20027;-81
2020/12/08 08:15:26;;;;;;;5.93;4.20;;;;;;;17.20;54.34;100452.81;4842732;29;20022;-80
2020/12/08 08:17:52;;;;;;;5.93;4.10;;;;;;;17.22;54.15;100451.94;4843266;29;20114;-80
2020/12/08 08:20:18;;;;;;;8.30;4.15;;;;;;;17.24;54.34;100454.50;4834097;29;20058;-80
2020/12/08 08:22:44;;;;;;;4.95;3.90;;;;;;;17.23;54.30;100456.25;4824741;29;20042;-80
2020/12/08 08:25:11;;;;;;;5.18;4.35;;;;;;;17.26;54.20;100465.72;4833820;29;20091;-80
2020/12/08 08:27:37;;;;;;;4.53;4.07;;;;;;;17.25;54.00;100480.47;4829865;29;20035;-81
2020/12/08 08:40:34;;;;;;;9.68;4.40;;;;;;;17.27;54.14;100488.28;4791687;30;20604;-81
2020/12/08 08:43:37;;;;;;;5.15;4.13;;;;;;;17.27;54.01;100481.31;4750233;30;20543;-81
2020/12/08 08:46:52;;;;;;;4.90;3.83;;;;;;;17.30;53.92;100480.41;4775057;30;20024;-81
2020/12/08 08:50:18;;;;;;;5.07;4.10;;;;;;;17.28;54.15;100484.78;4757954;30;20076;-81
2020/12/08 08:57:33;;;;;;;4.32;3.75;;;;;;;17.30;53.91;100495.16;4753544;30;20059;-82
2020/12/08 09:00:32;;;;;;;4.13;3.42;;;;;;;17.31;53.89;100500.34;4691557;30;20036;-82
2020/12/08 09:03:40;;;;;;;4.53;3.60;;;;;;;17.31;53.92;100507.28;4759873;30;20162;-81
2020/12/08 09:10:20;;;;;;;5.18;3.45;;;;;;;17.34;53.66;100507.25;4759040;30;20149;-81
2020/12/08 09:12:56;;;;;;;7.88;3.72;;;;;;;17.38;53.79;100511.53;4750282;30;20040;-81
2020/12/08 09:15:50;;;;;;;5.22;3.65;;;;;;;17.37;53.76;100515.00;4749961;30;20222;-81
2020/12/08 09:19:14;;;;;;;6.60;3.97;;;;;;;17.36;53.80;100521.94;4749743;30;20016;-82
2020/12/08 09:25:40;;;;;;;8.30;3.40;;;;;;;17.35;53.86;100522.81;4792329;30;20030;-81
2020/12/08 09:28:32;;;;;;;6.97;3.45;;;;;;;17.36;53.72;100527.16;4789209;30;20047;-82
2020/12/08 09:32:01;;;;;;;6.35;3.47;;;;;;;17.36;53.87;100524.53;4790747;30;20096;-83
2020/12/08 09:35:15;;;;;;;6.43;3.17;;;;;;;17.34;53.74;100515.06;4736788;30;20020;-81
2020/12/08 09:38:02;;;;;;;8.90;3.80;;;;;;;17.34;53.62;100520.25;4763741;30;20046;-81
2020/12/08 09:47:22;;;;;;;4.35;3.15;;;;;;;17.34;53.70;100509.84;4807560;30;20061;-81
2020/12/08 09:50:37;;;;;;;4.05;3.10;;;;;;;17.34;53.50;100522.84;4809896;29;20574;-82
2020/12/08 09:56:39;;;;;;;5.95;3.38;;;;;;;17.35;53.51;100514.16;4783131;30;20079;-81
2020/12/08 10:03:10;;;;;;;3.22;2.83;;;;;;;17.35;53.31;100520.22;4776290;30;20105;-81
2020/12/08 10:09:41;;;;;;;3.28;2.97;;;;;;;17.41;53.34;100509.72;4766425;30;20055;-81
2020/12/08 10:14:49;;;;;;;5.95;2.95;;;;;;;17.46;53.21;100504.44;5175848;23;20061;-81
2020/12/08 10:21:02;;;;;;;3.95;2.92;;;;;;;17.54;52.99;100506.97;5191993;23;20078;-81
2020/12/08 10:26:31;;;;;;;3.70;2.83;;;;;;;17.56;52.95;100510.41;5445174;24;20061;-78
2020/12/08 10:29:26;;;;;;;3.60;2.63;;;;;;;17.59;52.99;100512.94;4882230;29;20377;-79
2020/12/08 10:31:53;;;;;;;3.05;2.40;;;;;;;17.60;53.00;100515.53;4853576;29;20500;-80
2020/12/08 10:34:19;;;;;;;3.65;2.53;;;;;;;17.62;53.09;100513.78;4856251;29;20476;-79
2020/12/08 10:36:46;;;;;;;3.75;2.78;;;;;;;17.63;53.07;100515.47;4827775;29;20029;-79
2020/12/08 10:39:11;;;;;;;4.15;2.67;;;;;;;17.64;53.06;100511.16;4861806;29;20029;-79
2020/12/08 10:41:37;;;;;;;5.68;2.33;;;;;;;17.65;53.12;100513.72;4844353;29;20040;-79
2020/12/08 10:44:02;;;;;;;4.30;3.08;;;;;;;17.65;52.91;100513.72;4827455;29;20040;-79
2020/12/08 10:46:27;;;;;;;3.35;2.40;;;;;;;17.65;52.89;100512.84;4844503;29;20040;-79
2020/12/08 10:48:53;;;;;;;3.75;2.50;;;;;;;17.66;52.93;100512.84;4811059;29;20414;-80
2020/12/08 10:51:21;;;;;;;3.13;2.60;;;;;;;17.69;52.85;100514.53;4854886;29;20034;-80
2020/12/08 10:53:47;;;;;;;2.72;2.20;;;;;;;17.69;52.72;100518.00;4857232;29;20093;-79
2020/12/08 10:56:20;;;;;;;3.30;2.50;;;;;;;17.71;52.84;100515.38;4844409;29;20116;-79
2020/12/08 10:58:46;;;;;;;3.25;2.50;;;;;;;17.69;53.00;100504.13;4826167;29;20092;-79
2020/12/08 11:01:22;;;;;;;3.70;2.47;;;;;;;17.70;53.12;100505.84;4844277;29;20043;-80
2020/12/08 11:03:49;;;;;;;3.65;2.20;;;;;;;17.70;52.99;100513.63;4844565;29;20392;-79
2020/12/08 11:06:24;;;;;;;2.95;2.33;;;;;;;17.72;53.00;100516.22;4858023;29;20057;-79
2020/12/08 11:08:51;;;;;;;3.22;2.33;;;;;;;17.70;52.86;100513.63;4835057;29;20039;-79
2020/12/08 11:11:21;;;;;;;3.50;2.40;;;;;;;17.72;52.90;100519.69;4844501;29;20037;-79
2020/12/08 11:13:47;;;;;;;3.30;2.50;;;;;;;17.72;52.86;100513.63;4826954;29;20117;-79
2020/12/08 11:16:12;;;;;;;3.90;2.10;;;;;;;17.73;52.71;100521.41;4839989;29;20033;-79
2020/12/08 11:18:38;;;;;;;2.90;2.15;;;;;;;17.75;52.79;100521.41;4799265;29;20032;-79
2020/12/08 11:21:03;;;;;;;2.47;2.00;;;;;;;17.76;52.58;100518.75;4811308;29;20124;-79
2020/12/08 11:23:28;;;;;;;3.05;2.30;;;;;;;17.76;52.87;100523.13;4840852;29;20037;-79
2020/12/08 11:25:54;;;;;;;2.97;2.10;;;;;;;17.77;52.76;100524.81;4836541;29;20046;-79
2020/12/08 11:30:55;;;;;;;2.85;2.20;;;;;;;17.78;52.64;100529.16;5846791;23;20027;-81
2020/12/08 11:33:21;;;;;;;3.30;2.10;;;;;;;17.75;52.91;100524.00;4853413;29;20075;-81
2020/12/08 11:43:08;;;;;;;2.65;2.38;;;;;;;17.78;52.83;100522.19;5866796;24;20135;31
2020/12/08 11:46:40;;;;;;;5.13;2.47;;;;;;;17.79;53.11;100521.34;5543657;24;20117;-82
2020/12/08 11:50:30;;;;;;;3.05;2.33;;;;;;;17.80;53.01;100523.03;4826087;29;20035;-82
2020/12/08 11:52:55;;;;;;;3.58;2.70;;;;;;;17.79;53.30;100516.13;4824443;29;20089;-78
2020/12/08 11:55:21;;;;;;;4.85;2.70;;;;;;;17.79;53.25;100526.53;4814850;29;20055;-79
2020/12/08 11:57:47;;;;;;;3.25;2.70;;;;;;;17.79;53.42;100530.84;4812999;29;20038;-79
2020/12/08 12:00:13;;;;;;;4.72;2.80;;;;;;;17.79;53.48;100533.47;4816339;29;20054;-79
2020/12/08 12:02:41;;;;;;;4.38;2.75;;;;;;;17.80;53.54;100532.59;4831016;29;20456;-79
2020/12/08 12:05:06;;;;;;;5.85;2.53;;;;;;;17.79;53.45;100526.53;4806276;29;20190;-78
2020/12/08 12:07:32;;;;;;;5.65;2.83;;;;;;;17.77;53.53;100530.91;4797151;29;20018;-78
2020/12/08 12:09:58;;;;;;;3.70;2.60;;;;;;;17.77;53.30;100533.50;4810410;29;20049;-79
2020/12/08 12:12:24;;;;;;;4.95;2.60;;;;;;;17.77;53.43;100525.69;4793771;29;20042;-78
2020/12/08 12:14:49;;;;;;;4.32;2.70;;;;;;;17.78;53.50;100531.75;4822916;29;20045;-78
2020/12/08 12:17:14;;;;;;;3.90;2.70;;;;;;;17.77;53.83;100535.22;4794050;29;20405;-77
2020/12/08 12:19:41;;;;;;;3.45;2.38;;;;;;;17.76;53.54;100536.97;4792841;29;20156;-78
2020/12/08 12:22:06;;;;;;;3.72;2.28;;;;;;;17.77;53.48;100535.22;4794840;29;20075;-77
2020/12/08 12:24:32;;;;;;;3.85;2.20;;;;;;;17.77;53.69;100533.50;4775821;29;20137;-78
2020/12/08 12:26:57;;;;;;;2.90;2.20;;;;;;;17.78;53.52;100531.75;4763867;30;20052;-78
2020/12/08 12:29:23;;;;;;;5.05;2.08;;;;;;;17.76;53.51;100528.31;4796513;29;20496;-78
2020/12/08 12:34:18;;;;;;;3.50;2.30;;;;;;;17.78;53.50;100531.75;4857407;29;20053;-78
2020/12/08 12:36:46;;;;;;;2.83;2.33;;;;;;;17.77;53.46;100530.03;4836176;29;20041;-78
2020/12/08 12:39:11;;;;;;;5.30;2.40;;;;;;;17.78;53.66;100529.16;4846436;29;20039;-78
2020/12/08 12:41:37;;;;;;;2.80;2.33;;;;;;;17.77;53.68;100528.31;4816461;29;20042;-77
2020/12/08 12:44:02;;;;;;;3.25;2.05;;;;;;;17.79;53.65;100534.34;4821925;29;20042;-78
2020/12/08 12:46:28;;;;;;;5.18;2.20;;;;;;;17.80;53.42;100523.03;4812771;29;20037;-78
2020/12/08 12:48:53;;;;;;;2.92;2.47;;;;;;;17.80;53.48;100527.38;4815912;29;20041;-78
2020/12/08 12:51:23;;;;;;;3.60;2.00;;;;;;;17.80;53.42;100525.63;4818796;29;20136;-78
2020/12/08 12:53:48;;;;;;;2.78;2.20;;;;;;;17.79;53.54;100523.94;4850595;29;20437;-78
2020/12/08 12:56:21;;;;;;;2.40;2.00;;;;;;;17.79;53.46;100526.53;4830823;29;20067;-78
2020/12/08 12:58:47;;;;;;;3.25;2.03;;;;;;;17.80;53.64;100527.38;4830819;29;20037;-79
2020/12/08 13:01:12;;;;;;;3.53;2.33;;;;;;;17.79;53.43;100528.25;4845765;29;20082;-78
2020/12/08 13:03:38;;;;;;;3.88;1.90;;;;;;;17.80;53.58;100527.38;4830648;29;20030;-78
2020/12/08 13:06:07;;;;;;;2.38;1.90;;;;;;;17.80;53.27;100528.25;4830208;29;20033;-78
2020/12/08 13:08:32;;;;;;;2.47;2.08;;;;;;;17.79;53.40;100530.84;4827820;29;20034;-78
2020/12/08 13:10:58;;;;;;;2.25;1.92;;;;;;;17.81;53.54;100526.50;4860258;29;20540;-78
2020/12/08 13:13:23;;;;;;;2.30;1.80;;;;;;;17.82;53.34;100529.13;4820687;29;20034;-78
2020/12/08 13:15:48;;;;;;;3.47;1.83;;;;;;;17.82;53.55;100529.13;4837122;29;20064;-78
2020/12/08 13:18:14;;;;;;;2.22;1.85;;;;;;;17.81;53.18;100531.69;4817149;29;20037;-78
2020/12/08 13:20:39;;;;;;;2.38;1.77;;;;;;;17.81;53.37;100532.59;4813449;29;20041;-78
2020/12/08 13:23:04;;;;;;;2.78;1.73;;;;;;;17.81;53.40;100529.09;4822324;29;20117;-78